Time;durP1;ratioP1;P1;durP2;ratioP2;P2;SDS_P1;SDS_P2;PMS_P1;PMS_P2;Temp;Humidity;BMP_temperature;BMP_pressure;BME280_temperature;BME280_humidity;BME280_pressure;Samples;Min_cycle;Max_cycle;Signal;HPM_P1;HPM_P2
2023/03/30 00:01:13;;;;;;;46.47;37.87;;;9.90;93.60;;;;;;5034864;28;20481;-43
2023/03/30 00:03:43;;;;;;;48.03;37.15;;;9.80;93.50;;;;;;5032983;28;20125;-46
2023/03/30 00:06:19;;;;;;;45.00;37.08;;;9.80;93.50;;;;;;5033274;28;20025;-48
2023/03/30 00:08:48;;;;;;;45.55;37.88;;;9.80;93.50;;;;;;5033659;28;20120;-46
2023/03/30 00:11:16;;;;;;;46.13;37.38;;;9.80;93.50;;;;;;5033344;28;20056;-45
2023/03/30 00:13:43;;;;;;;47.45;37.30;;;9.80;93.50;;;;;;5033443;28;20026;-46
2023/03/30 00:16:12;;;;;;;45.72;38.88;;;9.80;93.50;;;;;;5034095;28;20040;-44
2023/03/30 00:18:39;;;;;;;44.97;37.13;;;9.80;93.40;;;;;;5033077;28;20029;-45
2023/03/30 00:21:09;;;;;;;44.95;36.58;;;9.80;93.50;;;;;;5033382;28;20475;-46
2023/03/30 00:23:38;;;;;;;42.38;35.65;;;9.80;93.40;;;;;;5034219;28;20044;-42
2023/03/30 00:26:06;;;;;;;46.22;36.85;;;9.80;93.40;;;;;;5050922;28;20041;-50
2023/03/30 00:28:33;;;;;;;40.75;35.97;;;9.80;93.40;;;;;;5054293;28;20044;-57
2023/03/30 00:31:00;;;;;;;42.55;34.65;;;9.80;93.50;;;;;;5053687;28;20597;-57
2023/03/30 00:33:27;;;;;;;43.15;35.00;;;9.80;93.60;;;;;;5037908;28;20418;-59
2023/03/30 00:35:57;;;;;;;42.45;37.10;;;9.80;93.70;;;;;;5032968;28;20235;-57
2023/03/30 00:38:25;;;;;;;44.83;38.20;;;9.80;93.80;;;;;;5049361;28;20034;-53
2023/03/30 00:40:53;;;;;;;45.08;38.78;;;9.70;93.80;;;;;;5032492;28;20049;-56
2023/03/30 00:43:20;;;;;;;41.35;35.63;;;9.70;93.90;;;;;;5048636;28;20033;-54
2023/03/30 00:45:47;;;;;;;48.13;38.03;;;9.70;94.00;;;;;;5053698;28;20025;-58
2023/03/30 00:48:18;;;;;;;46.40;37.35;;;9.70;94.10;;;;;;5046780;28;20450;-53
2023/03/30 00:51:06;;;;;;;44.65;37.53;;;9.70;94.10;;;;;;5033913;28;20482;-53
2023/03/30 00:53:55;;;;;;;46.80;36.58;;;9.70;94.20;;;;;;5032251;28;20040;-53
2023/03/30 00:56:27;;;;;;;47.65;37.65;;;9.70;94.20;;;;;;5046516;28;20043;-52
2023/03/30 00:58:56;;;;;;;43.45;37.25;;;9.70;94.30;;;;;;5052524;28;20071;-49
2023/03/30 01:01:27;;;;;;;44.25;36.88;;;9.70;94.30;;;;;;5053233;28;20411;-51
2023/03/30 01:04:01;;;;;;;49.22;36.53;;;9.70;94.40;;;;;;5042769;28;20037;-58
2023/03/30 01:06:29;;;;;;;45.58;34.63;;;9.70;94.40;;;;;;5032353;28;20044;-56
2023/03/30 01:08:56;;;;;;;45.78;37.20;;;9.70;94.50;;;;;;5032480;28;20128;-50
2023/03/30 01:11:23;;;;;;;49.72;36.35;;;9.70;94.50;;;;;;5056306;28;20610;-55
2023/03/30 01:14:06;;;;;;;46.55;36.22;;;9.70;94.50;;;;;;5052204;28;20397;-52
2023/03/30 01:17:00;;;;;;;46.42;36.90;;;9.60;94.50;;;;;;5046142;28;20036;-56
2023/03/30 01:19:51;;;;;;;45.30;37.15;;;9.70;94.60;;;;;;5033162;28;20045;-53
2023/03/30 01:22:19;;;;;;;46.72;35.58;;;9.70;94.60;;;;;;5048028;28;20045;-51
2023/03/30 01:25:06;;;;;;;43.83;36.53;;;9.70;94.60;;;;;;5031918;28;20049;-48
2023/03/30 01:28:09;;;;;;;42.55;33.60;;;9.60;94.60;;;;;;5032953;28;20033;-48
2023/03/30 01:31:00;;;;;;;43.80;34.67;;;9.70;94.70;;;;;;5032888;28;20033;-50
2023/03/30 01:33:41;;;;;;;;;;;9.70;94.70;;;;;;5032273;28;20022;-50
2023/03/30 01:36:29;;;;;;;46.63;33.78;;;9.70;94.70;;;;;;5032224;28;20023;-48
2023/03/30 01:39:35;;;;;;;43.50;35.35;;;9.70;94.80;;;;;;5032729;28;20095;-49
2023/03/30 01:42:32;;;;;;;44.75;34.63;;;9.70;94.80;;;;;;5033031;28;20033;-49
2023/03/30 01:45:27;;;;;;;48.47;35.38;;;9.70;94.80;;;;;;5052758;28;20036;-47
2023/03/30 01:48:22;;;;;;;43.92;32.95;;;9.60;94.80;;;;;;5052270;28;20138;-50
2023/03/30 01:50:55;;;;;;;41.80;31.75;;;9.70;94.80;;;;;;5045140;28;20083;-45
2023/03/30 01:53:37;;;;;;;42.33;33.40;;;9.70;94.80;;;;;;5031144;28;20030;-45
2023/03/30 01:56:21;;;;;;;41.90;33.60;;;9.70;94.80;;;;;;5031896;28;20032;-49
2023/03/30 01:59:23;;;;;;;45.45;32.42;;;9.70;94.90;;;;;;5032217;28;20064;-47
2023/03/30 02:02:03;;;;;;;42.58;33.30;;;9.80;94.90;;;;;;5025933;28;20041;-48
2023/03/30 02:04:33;;;;;;;39.10;30.40;;;9.80;95.00;;;;;;5033574;28;20475;-45
2023/03/30 02:07:01;;;;;;;;;;;9.80;94.90;;;;;;5036151;28;20448;-47
2023/03/30 02:09:29;;;;;;;40.05;32.13;;;9.90;94.90;;;;;;5035766;28;20006;-47
2023/03/30 02:11:58;;;;;;;43.70;31.45;;;9.90;94.90;;;;;;5019220;28;20037;-46
2023/03/30 02:14:28;;;;;;;42.30;32.45;;;9.90;94.80;;;;;;5051827;28;20883;-45
2023/03/30 02:17:10;;;;;;;39.80;31.15;;;9.90;94.80;;;;;;5036470;28;20021;-46
2023/03/30 02:19:37;;;;;;;39.80;30.67;;;9.90;94.70;;;;;;5035796;28;20041;-46
2023/03/30 02:22:05;;;;;;;40.80;30.15;;;9.90;94.70;;;;;;5036285;28;20120;-48
2023/03/30 02:24:34;;;;;;;41.45;29.90;;;9.80;94.70;;;;;;5034624;28;20045;-46
2023/03/30 02:27:01;;;;;;;35.83;29.73;;;9.90;94.60;;;;;;5036162;28;20142;-48
2023/03/30 02:29:30;;;;;;;36.55;30.40;;;9.80;94.60;;;;;;5036512;28;20025;-44
2023/03/30 02:31:59;;;;;;;37.58;29.65;;;9.90;94.60;;;;;;5035163;28;20034;-47
2023/03/30 02:34:54;;;;;;;36.90;28.27;;;9.80;94.50;;;;;;5035824;28;20100;-44
2023/03/30 02:37:41;;;;;;;40.03;30.33;;;9.80;94.50;;;;;;5036102;28;20025;-47
2023/03/30 02:40:35;;;;;;;37.35;27.80;;;9.80;94.50;;;;;;5043058;28;20074;-49
2023/03/30 02:43:51;;;;;;;36.08;28.33;;;9.90;94.40;;;;;;5054897;28;20026;-45
2023/03/30 02:46:35;;;;;;;32.55;27.48;;;9.90;94.40;;;;;;5046742;28;20056;-46
2023/03/30 02:49:45;;;;;;;34.00;27.60;;;9.80;94.40;;;;;;5053517;28;20033;-47
2023/03/30 02:52:49;;;;;;;32.28;26.63;;;9.80;94.30;;;;;;5055758;28;20025;-49
2023/03/30 02:55:15;;;;;;;32.90;27.48;;;9.80;94.30;;;;;;5054741;28;20117;-47
2023/03/30 02:58:20;;;;;;;35.58;28.67;;;9.80;94.30;;;;;;5037177;28;20396;-48
2023/03/30 03:01:02;;;;;;;35.50;25.98;;;9.70;94.30;;;;;;5035751;28;20029;-50
2023/03/30 03:03:35;;;;;;;33.55;26.63;;;9.70;94.30;;;;;;5051228;28;20029;-51
2023/03/30 03:06:08;;;;;;;30.35;26.42;;;9.70;94.30;;;;;;5034610;28;20038;-48
2023/03/30 03:08:42;;;;;;;34.10;26.77;;;9.70;94.30;;;;;;5035324;28;20029;-45
2023/03/30 03:11:11;;;;;;;33.33;26.13;;;9.70;94.40;;;;;;5035047;28;20029;-45
2023/03/30 03:13:41;;;;;;;29.43;25.83;;;9.70;94.40;;;;;;5034505;28;20030;-45
2023/03/30 03:16:12;;;;;;;34.28;26.45;;;9.80;94.40;;;;;;5034262;28;20017;-47
2023/03/30 03:18:38;;;;;;;31.92;27.92;;;9.80;94.40;;;;;;5035533;28;20061;-47
2023/03/30 03:21:09;;;;;;;31.88;26.65;;;9.80;94.30;;;;;;5035640;28;20036;-46
2023/03/30 03:23:36;;;;;;;;;;;9.80;94.30;;;;;;5035550;28;20025;-44
2023/03/30 03:26:08;;;;;;;29.13;23.75;;;9.80;94.40;;;;;;5033926;28;19932;-46
2023/03/30 03:28:35;;;;;;;32.55;23.25;;;9.80;94.30;;;;;;5034355;28;20037;-44
2023/03/30 03:31:04;;;;;;;31.23;24.15;;;9.80;94.30;;;;;;5041644;28;20025;-44
2023/03/30 03:33:32;;;;;;;29.38;23.63;;;9.90;94.40;;;;;;5055215;28;20045;-45
2023/03/30 03:35:59;;;;;;;29.67;23.77;;;9.80;94.20;;;;;;5053589;28;20116;-44
2023/03/30 03:38:27;;;;;;;31.48;23.38;;;9.90;94.30;;;;;;5054456;28;20033;-44
2023/03/30 03:40:55;;;;;;;26.38;22.60;;;9.90;94.30;;;;;;5035684;28;20053;-44
2023/03/30 03:43:31;;;;;;;32.45;23.48;;;10.00;94.30;;;;;;5033769;28;20494;-45
2023/03/30 03:46:02;;;;;;;27.30;21.45;;;9.90;94.20;;;;;;5034408;28;20056;-44
2023/03/30 03:48:28;;;;;;;27.45;20.33;;;9.90;94.10;;;;;;5033754;28;20347;-44
2023/03/30 03:50:57;;;;;;;27.70;20.42;;;10.00;94.20;;;;;;5034705;28;20037;-44
2023/03/30 03:53:26;;;;;;;26.83;22.73;;;10.00;94.00;;;;;;5034002;28;20043;-46
2023/03/30 03:55:54;;;;;;;26.97;19.93;;;10.00;94.00;;;;;;5052091;28;20061;-43
2023/03/30 03:58:20;;;;;;;22.02;18.98;;;10.10;94.00;;;;;;5053258;28;20286;-44
2023/03/30 04:00:47;;;;;;;27.30;19.50;;;10.10;93.90;;;;;;5050596;28;20040;-45
2023/03/30 04:03:15;;;;;;;23.25;17.27;;;10.20;93.90;;;;;;5041781;28;20829;-43
2023/03/30 04:05:45;;;;;;;22.73;18.35;;;10.20;93.90;;;;;;5042877;28;20106;-42
2023/03/30 04:08:13;;;;;;;22.58;18.73;;;10.20;93.80;;;;;;5047497;28;20036;-43
2023/03/30 04:10:44;;;;;;;23.05;17.23;;;10.20;93.70;;;;;;5042381;28;20087;-44
2023/03/30 04:13:11;;;;;;;19.92;16.00;;;10.20;93.70;;;;;;5049159;28;20033;-44
2023/03/30 04:15:41;;;;;;;21.35;15.52;;;10.20;93.60;;;;;;5041664;28;20419;-45
2023/03/30 04:18:09;;;;;;;19.33;15.98;;;10.30;93.60;;;;;;5034156;28;20029;-43
2023/03/30 04:20:34;;;;;;;23.25;17.70;;;10.20;93.60;;;;;;5036955;28;20094;-45
2023/03/30 04:23:01;;;;;;;18.25;15.63;;;10.30;93.60;;;;;;5033285;28;20029;-44
2023/03/30 04:25:30;;;;;;;20.00;16.38;;;10.20;93.60;;;;;;5047280;28;20045;-44
2023/03/30 04:27:57;;;;;;;18.05;15.13;;;10.30;93.60;;;;;;5032485;28;20052;-44
2023/03/30 04:30:29;;;;;;;19.70;15.38;;;10.30;93.60;;;;;;5034166;28;20395;-43
2023/03/30 04:33:03;;;;;;;19.98;15.50;;;10.30;93.60;;;;;;5047106;28;20029;-44
2023/03/30 04:35:31;;;;;;;20.23;15.35;;;10.30;93.60;;;;;;5043101;28;20037;-44
2023/03/30 04:38:01;;;;;;;20.75;14.82;;;10.20;93.50;;;;;;5020739;28;20099;-44
2023/03/30 04:40:29;;;;;;;16.60;13.73;;;10.30;93.50;;;;;;5053036;28;20052;-44
2023/03/30 04:43:02;;;;;;;19.95;14.05;;;10.20;93.40;;;;;;5053741;28;20039;-43
2023/03/30 04:45:32;;;;;;;19.10;13.25;;;10.30;93.50;;;;;;5045207;28;20422;-44
2023/03/30 04:48:02;;;;;;;17.40;13.50;;;10.30;93.40;;;;;;5039564;28;20048;-43
2023/03/30 04:50:29;;;;;;;;;;;10.30;93.40;;;;;;5034032;28;20455;-44
2023/03/30 04:52:55;;;;;;;17.38;11.77;;;10.30;93.30;;;;;;5039100;28;19963;-43
2023/03/30 04:55:23;;;;;;;16.60;11.73;;;10.30;93.30;;;;;;5043364;28;20368;-44
2023/03/30 04:57:51;;;;;;;15.45;11.23;;;10.40;93.10;;;;;;5052344;28;20067;-42
2023/03/30 05:00:20;;;;;;;15.25;11.23;;;10.40;93.00;;;;;;5042176;28;20105;-42
2023/03/30 05:02:47;;;;;;;15.30;10.60;;;10.40;92.90;;;;;;5038695;28;20017;-43
2023/03/30 05:05:15;;;;;;;14.13;10.77;;;10.50;92.90;;;;;;5051653;28;20075;-42
2023/03/30 05:07:43;;;;;;;17.52;10.98;;;10.50;92.80;;;;;;5042732;28;20158;-44
2023/03/30 05:10:09;;;;;;;14.57;10.65;;;10.60;92.70;;;;;;5038615;28;20067;-42
2023/03/30 05:12:37;;;;;;;15.98;9.73;;;10.60;92.60;;;;;;5034959;28;20029;-44
2023/03/30 05:15:05;;;;;;;13.98;9.55;;;10.60;92.60;;;;;;5048690;28;20037;-44
2023/03/30 05:17:34;;;;;;;13.55;9.77;;;10.70;92.60;;;;;;5015972;28;20037;-45
2023/03/30 05:20:07;;;;;;;13.68;9.00;;;10.70;92.50;;;;;;5033237;28;20017;-44
2023/03/30 05:22:35;;;;;;;13.27;9.32;;;10.70;92.50;;;;;;5033498;28;20104;-44
2023/03/30 05:25:03;;;;;;;12.50;8.93;;;10.70;92.40;;;;;;5048242;28;20037;-44
2023/03/30 05:27:33;;;;;;;14.48;8.55;;;10.70;92.40;;;;;;5048558;28;20048;-44
2023/03/30 05:29:59;;;;;;;12.07;7.25;;;10.70;92.50;;;;;;5048361;28;20061;-45
2023/03/30 05:32:25;;;;;;;12.68;8.50;;;10.70;92.50;;;;;;5032960;28;20080;-43
2023/03/30 05:34:59;;;;;;;14.85;7.47;;;10.70;92.50;;;;;;5032853;28;20017;-43
2023/03/30 05:37:24;;;;;;;11.52;7.60;;;10.80;92.40;;;;;;5032928;28;20355;-42
2023/03/30 05:39:54;;;;;;;12.45;7.68;;;10.80;92.40;;;;;;5047036;28;20087;-44
2023/03/30 05:42:21;;;;;;;11.57;6.53;;;10.80;92.40;;;;;;5032664;28;20037;-46
2023/03/30 05:44:49;;;;;;;11.40;6.55;;;10.80;92.40;;;;;;5032652;28;20025;-43
2023/03/30 05:47:17;;;;;;;10.07;6.32;;;10.80;92.40;;;;;;5031855;28;20359;-44
2023/03/30 05:49:44;;;;;;;9.38;7.07;;;10.90;92.40;;;;;;5032648;28;20037;-43
2023/03/30 05:52:12;;;;;;;10.38;6.28;;;10.90;92.40;;;;;;5032830;28;20108;-44
2023/03/30 05:54:41;;;;;;;12.63;7.32;;;10.90;92.40;;;;;;5032729;28;20502;-43
2023/03/30 05:57:08;;;;;;;10.13;6.88;;;11.00;92.20;;;;;;5032524;28;20034;-43
2023/03/30 05:59:36;;;;;;;9.70;5.97;;;11.00;92.20;;;;;;5032622;28;20040;-45
2023/03/30 06:02:05;;;;;;;9.80;6.68;;;10.90;92.10;;;;;;5032812;28;20033;-43
2023/03/30 06:04:32;;;;;;;7.43;5.13;;;11.00;92.10;;;;;;5032552;28;20025;-44
2023/03/30 06:07:00;;;;;;;12.13;5.90;;;11.00;92.00;;;;;;5032360;28;20103;-43
2023/03/30 06:09:27;;;;;;;10.82;5.75;;;11.10;92.00;;;;;;5031442;28;20164;-45
2023/03/30 06:11:54;;;;;;;8.98;5.47;;;11.20;91.90;;;;;;5032553;28;20097;-43
2023/03/30 06:14:22;;;;;;;7.35;5.57;;;11.30;91.70;;;;;;5032739;28;20026;-47
2023/03/30 06:16:48;;;;;;;7.28;4.60;;;11.40;91.50;;;;;;5032363;28;20057;-45
2023/03/30 06:19:15;;;;;;;7.65;4.95;;;11.40;91.10;;;;;;5031576;28;20037;-44
2023/03/30 06:21:42;;;;;;;12.77;4.53;;;11.40;90.90;;;;;;5035913;28;20029;-42
2023/03/30 06:24:09;;;;;;;9.95;4.63;;;11.50;90.90;;;;;;5052242;28;20045;-43
2023/03/30 06:26:41;;;;;;;8.00;4.00;;;11.60;90.40;;;;;;5049790;28;20029;-44
2023/03/30 06:29:08;;;;;;;7.13;4.25;;;11.50;90.30;;;;;;5032192;28;20061;-44
2023/03/30 06:31:34;;;;;;;9.32;4.82;;;11.50;90.20;;;;;;5042322;28;20048;-44
2023/03/30 06:34:03;;;;;;;15.65;5.50;;;11.60;90.40;;;;;;5051441;28;20017;-44
2023/03/30 06:36:29;;;;;;;8.75;4.63;;;11.60;90.60;;;;;;5051346;28;20029;-45
2023/03/30 06:38:56;;;;;;;6.82;3.67;;;11.60;90.60;;;;;;5048025;28;20025;-51
2023/03/30 06:41:23;;;;;;;7.72;4.18;;;11.60;90.80;;;;;;5032304;28;20022;-48
2023/03/30 06:43:50;;;;;;;8.25;3.80;;;11.60;91.00;;;;;;5050036;28;20376;-52
2023/03/30 06:46:17;;;;;;;10.25;4.47;;;11.60;91.10;;;;;;5052001;28;20036;-46
2023/03/30 06:48:44;;;;;;;10.25;4.20;;;11.60;91.20;;;;;;5044896;28;20076;-46
2023/03/30 06:51:11;;;;;;;11.25;3.78;;;11.60;91.20;;;;;;5050754;28;20057;-47
2023/03/30 06:53:40;;;;;;;9.38;4.18;;;11.60;91.30;;;;;;5035527;28;20028;-46
2023/03/30 06:56:08;;;;;;;9.68;4.45;;;11.60;91.30;;;;;;5049986;28;20017;-45
2023/03/30 06:58:37;;;;;;;9.75;4.32;;;11.80;91.20;;;;;;5035811;28;20827;-47
2023/03/30 07:01:16;;;;;;;7.10;4.20;;;11.90;91.10;;;;;;5035974;28;20041;-47
2023/03/30 07:03:45;;;;;;;7.97;4.32;;;11.90;90.60;;;;;;5018752;28;20041;-48
2023/03/30 07:06:16;;;;;;;9.48;4.13;;;12.00;90.40;;;;;;5034548;28;20049;-48
2023/03/30 07:08:43;;;;;;;10.52;3.70;;;12.00;90.20;;;;;;5035439;28;20347;-43
2023/03/30 07:11:13;;;;;;;9.70;4.10;;;12.20;90.30;;;;;;5034642;28;20096;-44
2023/03/30 07:13:41;;;;;;;10.55;5.18;;;12.30;90.00;;;;;;5034485;28;20041;-47
2023/03/30 07:16:09;;;;;;;7.70;4.32;;;12.40;89.50;;;;;;5051184;28;20025;-47
2023/03/30 07:18:35;;;;;;;14.23;4.63;;;12.40;89.20;;;;;;5055003;28;20055;-46
2023/03/30 07:21:03;;;;;;;12.32;5.32;;;12.50;89.10;;;;;;5054852;28;20036;-45
2023/03/30 07:23:34;;;;;;;9.52;4.38;;;12.50;88.90;;;;;;5039875;28;20029;-43
2023/03/30 07:26:05;;;;;;;10.07;4.80;;;12.60;88.70;;;;;;5034569;28;20053;-43
2023/03/30 07:28:32;;;;;;;9.52;4.68;;;12.60;88.70;;;;;;5034226;28;20037;-43
2023/03/30 07:31:12;;;;;;;9.20;4.40;;;12.60;88.60;;;;;;5034977;28;20045;-43
2023/03/30 07:33:43;;;;;;;9.40;4.50;;;12.70;88.70;;;;;;5037300;28;20339;-45
2023/03/30 07:36:10;;;;;;;6.53;4.78;;;12.70;88.60;;;;;;5054825;28;20024;-43
2023/03/30 07:38:37;;;;;;;7.95;4.40;;;12.80;88.40;;;;;;5053854;28;20024;-46
2023/03/30 07:41:13;;;;;;;7.85;4.47;;;12.80;88.50;;;;;;5034949;28;20033;-42
2023/03/30 07:43:41;;;;;;;8.25;4.95;;;12.80;88.30;;;;;;5035168;28;20396;-43
2023/03/30 07:46:11;;;;;;;8.43;4.65;;;12.80;88.40;;;;;;5034850;28;20036;-43
2023/03/30 07:48:38;;;;;;;9.90;4.35;;;12.80;88.40;;;;;;5033862;28;20057;-46
2023/03/30 07:51:06;;;;;;;6.40;4.35;;;12.90;88.20;;;;;;5033793;28;20064;-43
2023/03/30 07:53:37;;;;;;;10.27;4.23;;;12.90;88.20;;;;;;5033906;28;20069;-45
2023/03/30 07:56:05;;;;;;;8.77;4.70;;;12.90;88.00;;;;;;5034675;28;20268;-44
2023/03/30 07:58:32;;;;;;;8.43;3.85;;;13.00;87.80;;;;;;5034683;28;20025;-45
2023/03/30 08:01:01;;;;;;;7.55;4.60;;;13.00;87.70;;;;;;5033703;28;20048;-44
2023/03/30 08:03:27;;;;;;;10.57;3.95;;;13.10;87.60;;;;;;5033663;28;20036;-44
2023/03/30 08:06:15;;;;;;;14.35;4.82;;;13.00;87.20;;;;;;5034691;28;20041;-43
2023/03/30 08:08:42;;;;;;;6.78;4.22;;;13.30;87.30;;;;;;5034316;28;20561;-44
2023/03/30 08:11:10;;;;;;;8.40;4.55;;;13.30;86.80;;;;;;5034265;28;20026;-44
2023/03/30 08:13:37;;;;;;;11.18;4.18;;;13.30;86.60;;;;;;5034445;28;20037;-44
2023/03/30 08:16:03;;;;;;;11.68;5.60;;;13.40;86.40;;;;;;5034387;28;20029;-46
2023/03/30 08:18:30;;;;;;;9.85;5.38;;;13.40;86.00;;;;;;5034521;28;20035;-46
2023/03/30 08:20:57;;;;;;;12.25;4.10;;;13.40;85.90;;;;;;5034276;28;20037;-45
2023/03/30 08:23:25;;;;;;;10.80;4.88;;;13.40;86.10;;;;;;5034422;28;20032;-46
2023/03/30 08:25:57;;;;;;;9.13;4.38;;;13.30;85.60;;;;;;5034167;28;20060;-44
2023/03/30 08:28:29;;;;;;;9.02;3.78;;;13.20;85.90;;;;;;5033183;28;20057;-45
2023/03/30 08:31:03;;;;;;;10.23;4.22;;;13.30;85.70;;;;;;5032779;28;20030;-45
2023/03/30 08:33:29;;;;;;;9.45;4.22;;;13.30;85.50;;;;;;5034254;28;20088;-46
2023/03/30 08:35:56;;;;;;;11.48;3.92;;;13.40;85.40;;;;;;5053809;28;20361;-46
2023/03/30 08:38:23;;;;;;;8.35;3.55;;;13.40;85.60;;;;;;5052706;28;20140;-44
2023/03/30 08:40:49;;;;;;;11.05;4.28;;;13.40;85.10;;;;;;5053846;28;20025;-46
2023/03/30 08:43:50;;;;;;;9.32;3.90;;;13.60;85.90;;;;;;5051311;28;20037;-47
2023/03/30 08:46:19;;;;;;;8.98;4.28;;;13.90;84.80;;;;;;5053606;28;20421;-45
2023/03/30 08:48:50;;;;;;;11.38;3.17;;;14.10;84.30;;;;;;5019984;28;20029;-47
2023/03/30 08:51:35;;;;;;;7.90;2.90;;;13.90;83.80;;;;;;5052672;28;20373;-45
2023/03/30 08:54:06;;;;;;;6.82;2.78;;;13.80;83.70;;;;;;5053777;28;20036;-47
2023/03/30 08:56:39;;;;;;;13.32;3.47;;;13.50;83.80;;;;;;5037520;28;20037;-44
2023/03/30 08:59:20;;;;;;;12.15;3.70;;;13.40;84.70;;;;;;5017050;28;20033;-47
2023/03/30 09:02:07;;;;;;;11.93;3.38;;;13.20;85.80;;;;;;5033612;28;20025;-42
2023/03/30 09:05:00;;;;;;;12.32;4.25;;;12.90;87.40;;;;;;5032370;28;20063;-44
2023/03/30 09:07:50;;;;;;;7.88;4.10;;;12.90;88.30;;;;;;5033256;28;20347;-47
2023/03/30 09:10:18;;;;;;;9.98;4.10;;;12.80;89.00;;;;;;5033319;28;20463;-46
2023/03/30 09:12:48;;;;;;;11.20;4.22;;;12.60;89.50;;;;;;5048836;28;20075;-46
2023/03/30 09:15:38;;;;;;;13.52;4.47;;;12.50;89.80;;;;;;5048532;28;20083;-47
2023/03/30 09:18:29;;;;;;;9.88;4.75;;;12.40;90.00;;;;;;5033102;28;20033;-45
2023/03/30 09:20:59;;;;;;;12.93;4.40;;;12.40;90.30;;;;;;5033183;28;20034;-44
2023/03/30 09:23:29;;;;;;;10.60;3.60;;;12.40;89.80;;;;;;5037853;28;20021;-44
2023/03/30 09:26:19;;;;;;;15.52;4.53;;;12.40;89.60;;;;;;5052305;28;20056;-45
2023/03/30 09:29:14;;;;;;;15.18;4.50;;;12.40;89.70;;;;;;5052023;28;20634;-44
2023/03/30 09:32:02;;;;;;;9.65;4.07;;;12.40;90.00;;;;;;5053022;28;20358;-44
2023/03/30 09:34:43;;;;;;;12.85;4.65;;;12.40;90.50;;;;;;5052556;28;20480;-49
2023/03/30 09:37:23;;;;;;;12.77;5.78;;;12.40;90.60;;;;;;5052614;28;20478;-46
2023/03/30 09:39:52;;;;;;;;;;;12.40;90.90;;;;;;5046134;28;20033;-46
2023/03/30 09:42:34;;;;;;;11.90;4.40;;;12.60;91.30;;;;;;5033054;28;19909;-45
2023/03/30 09:45:21;;;;;;;10.60;4.25;;;12.80;91.20;;;;;;5045032;28;20451;-46
2023/03/30 09:47:47;;;;;;;10.65;3.97;;;13.20;89.90;;;;;;5051588;28;20183;-44
2023/03/30 09:50:20;;;;;;;11.38;3.78;;;13.40;88.20;;;;;;5051844;28;20107;-45
2023/03/30 09:53:00;;;;;;;11.93;4.03;;;13.40;87.40;;;;;;5051490;28;20052;-44
2023/03/30 09:55:33;;;;;;;10.20;3.95;;;13.30;87.10;;;;;;5032329;28;20344;-44
2023/03/30 09:58:13;;;;;;;15.27;4.50;;;13.30;87.30;;;;;;5032632;28;20026;-44
2023/03/30 10:00:39;;;;;;;12.35;4.38;;;13.40;87.70;;;;;;5051906;28;20354;-43
2023/03/30 10:03:09;;;;;;;17.08;4.07;;;13.40;87.50;;;;;;5051758;28;20029;-46
2023/03/30 10:05:40;;;;;;;11.75;2.80;;;13.20;87.30;;;;;;5037705;28;20041;-45
2023/03/30 10:08:19;;;;;;;14.05;3.30;;;13.10;87.30;;;;;;5031029;28;20025;-45
2023/03/30 10:10:51;;;;;;;9.98;2.90;;;13.20;87.50;;;;;;5031389;28;20064;-45
2023/03/30 10:13:26;;;;;;;11.27;3.50;;;13.10;87.00;;;;;;5033056;28;20041;-45
2023/03/30 10:16:02;;;;;;;12.82;4.15;;;12.90;87.40;;;;;;5034351;28;20033;-43
2023/03/30 10:18:54;;;;;;;14.75;4.03;;;12.90;87.70;;;;;;5052510;28;20039;-44
2023/03/30 10:21:28;;;;;;;19.40;4.53;;;12.80;88.00;;;;;;5041960;28;20033;-44
2023/03/30 10:24:22;;;;;;;23.98;5.82;;;12.70;88.10;;;;;;5048285;28;20760;-45
2023/03/30 10:26:55;;;;;;;20.10;5.97;;;12.70;87.50;;;;;;5048606;28;20049;-45
2023/03/30 10:29:25;;;;;;;13.20;4.35;;;12.60;87.00;;;;;;5036304;28;20029;-46
2023/03/30 10:32:15;;;;;;;15.68;4.88;;;12.60;86.60;;;;;;5035284;28;20513;-47
2023/03/30 10:34:51;;;;;;;19.52;4.45;;;12.40;86.60;;;;;;5036276;28;20109;-44
2023/03/30 10:37:35;;;;;;;18.92;4.78;;;12.30;86.60;;;;;;5034726;28;20142;-47
2023/03/30 10:40:21;;;;;;;17.83;4.05;;;12.40;87.20;;;;;;5036176;28;20033;-45
2023/03/30 10:42:56;;;;;;;13.88;4.18;;;12.80;87.40;;;;;;5034974;28;20025;-48
2023/03/30 10:45:47;;;;;;;18.35;5.35;;;13.30;85.90;;;;;;5034383;28;20030;-46
2023/03/30 10:48:40;;;;;;;20.48;4.50;;;13.60;83.80;;;;;;5035443;28;20033;-49
2023/03/30 10:51:29;;;;;;;14.27;3.65;;;13.80;82.40;;;;;;5034916;28;20034;-48
2023/03/30 10:54:17;;;;;;;12.55;3.50;;;13.90;81.90;;;;;;5035871;28;20078;-45
2023/03/30 10:56:53;;;;;;;14.45;3.40;;;13.90;81.30;;;;;;5034915;28;20088;-46
2023/03/30 10:59:59;;;;;;;9.80;3.42;;;13.70;80.80;;;;;;5034508;28;20370;-47
2023/03/30 11:02:41;;;;;;;17.40;4.47;;;13.40;81.00;;;;;;5049237;28;20105;-46
2023/03/30 11:05:21;;;;;;;21.05;4.93;;;13.10;81.50;;;;;;5055591;28;20025;-49
2023/03/30 11:08:29;;;;;;;15.13;4.13;;;12.90;82.20;;;;;;5050992;28;20036;-46
2023/03/30 11:10:58;;;;;;;17.00;4.13;;;13.00;83.10;;;;;;5033774;28;20103;-47
2023/03/30 11:13:42;;;;;;;14.02;4.03;;;13.40;82.40;;;;;;5034190;28;20112;-45
2023/03/30 11:16:19;;;;;;;12.57;2.97;;;13.50;80.40;;;;;;5034579;28;20044;-47
2023/03/30 11:19:18;;;;;;;16.90;3.75;;;13.60;79.80;;;;;;5050893;28;20040;-49
2023/03/30 11:22:14;;;;;;;12.77;3.70;;;13.90;78.30;;;;;;5034251;28;20045;-48
2023/03/30 11:24:45;;;;;;;13.27;2.97;;;14.20;76.00;;;;;;5035240;28;20049;-47
2023/03/30 11:27:34;;;;;;;10.77;3.03;;;13.90;74.80;;;;;;5033916;28;20052;-47
2023/03/30 11:30:22;;;;;;;8.57;2.47;;;13.80;74.70;;;;;;5034081;28;20033;-48
2023/03/30 11:33:00;;;;;;;9.98;2.65;;;13.60;74.80;;;;;;5033457;28;20041;-49
2023/03/30 11:36:09;;;;;;;12.55;3.42;;;13.40;74.10;;;;;;5034490;28;20034;-44
2023/03/30 11:38:48;;;;;;;7.90;2.40;;;13.20;75.30;;;;;;5034741;28;20666;-45
2023/03/30 11:41:22;;;;;;;11.82;3.60;;;13.10;76.10;;;;;;5035159;28;20336;-45
2023/03/30 11:43:55;;;;;;;15.73;6.43;;;13.10;76.00;;;;;;5052443;28;20052;-48
2023/03/30 11:47:00;;;;;;;14.20;4.80;;;13.10;76.50;;;;;;5054996;28;20366;-46
2023/03/30 11:49:54;;;;;;;13.77;2.78;;;13.30;76.30;;;;;;5054377;28;20086;-46
2023/03/30 11:52:54;;;;;;;10.23;2.67;;;13.50;76.10;;;;;;5043246;28;20041;-45
2023/03/30 11:56:10;;;;;;;10.27;2.60;;;13.70;75.20;;;;;;5034455;28;20022;-45
2023/03/30 11:58:57;;;;;;;12.98;2.95;;;13.70;73.90;;;;;;5022698;28;20041;-48
2023/03/30 12:01:39;;;;;;;12.20;2.75;;;13.70;74.50;;;;;;5052862;28;20032;-45
2023/03/30 12:04:32;;;;;;;14.13;3.10;;;13.60;74.80;;;;;;5054654;28;20517;-49
2023/03/30 12:07:00;;;;;;;12.38;3.08;;;13.30;76.00;;;;;;5037813;28;20034;-45
2023/03/30 12:09:57;;;;;;;10.65;2.85;;;13.20;76.70;;;;;;5049824;28;20037;-49
2023/03/30 12:12:50;;;;;;;10.98;3.13;;;13.00;76.00;;;;;;5050207;28;20034;-47
2023/03/30 12:16:02;;;;;;;9.77;2.53;;;13.10;77.00;;;;;;5034079;28;20036;-46
2023/03/30 12:19:05;;;;;;;10.88;2.25;;;13.10;75.70;;;;;;5033384;28;20034;-46
2023/03/30 12:21:40;;;;;;;16.55;3.70;;;13.10;74.80;;;;;;5033955;28;20113;-50
2023/03/30 12:24:44;;;;;;;14.07;2.58;;;13.10;75.70;;;;;;5032934;28;20242;-49
2023/03/30 12:27:10;;;;;;;9.20;2.75;;;13.00;76.30;;;;;;5049949;28;20351;-46
2023/03/30 12:30:00;;;;;;;16.15;3.67;;;13.00;77.30;;;;;;5053871;28;20063;-46
2023/03/30 12:32:55;;;;;;;11.40;2.67;;;13.00;77.80;;;;;;5051937;28;20119;-45
2023/03/30 12:35:49;;;;;;;12.55;2.72;;;12.90;78.70;;;;;;5033937;28;20032;-45
2023/03/30 12:38:24;;;;;;;11.15;2.90;;;12.90;80.60;;;;;;5041312;28;20085;-44
2023/03/30 12:41:14;;;;;;;16.27;4.28;;;12.70;82.10;;;;;;5048422;28;20114;-42
2023/03/30 12:43:58;;;;;;;14.88;4.38;;;12.60;84.00;;;;;;5032831;28;20025;-41
2023/03/30 12:46:59;;;;;;;11.05;3.63;;;12.60;85.60;;;;;;5033483;28;20045;-42
2023/03/30 12:49:50;;;;;;;16.23;3.85;;;12.60;86.10;;;;;;5032134;28;20044;-44
2023/03/30 12:53:02;;;;;;;13.57;3.60;;;12.50;86.10;;;;;;5033312;28;20434;-41
2023/03/30 12:55:44;;;;;;;15.00;4.35;;;12.40;86.30;;;;;;5031902;28;20550;-43
2023/03/30 12:58:42;;;;;;;15.95;3.95;;;12.50;85.50;;;;;;5033688;28;20045;-42
2023/03/30 13:01:35;;;;;;;16.45;4.57;;;12.50;85.30;;;;;;5032262;28;20021;-44
2023/03/30 13:04:29;;;;;;;19.63;4.03;;;12.40;85.30;;;;;;5033546;28;20022;-42
2023/03/30 13:07:01;;;;;;;23.00;5.07;;;12.40;85.50;;;;;;5032502;28;20034;-43
2023/03/30 13:09:53;;;;;;;21.42;5.63;;;12.40;85.50;;;;;;5032212;28;20095;-42
2023/03/30 13:12:39;;;;;;;17.33;4.30;;;12.40;85.70;;;;;;5033130;28;20026;-42
2023/03/30 13:15:27;;;;;;;18.25;4.07;;;12.20;86.50;;;;;;5032506;28;20030;-42
2023/03/30 13:18:02;;;;;;;17.65;4.40;;;12.20;87.10;;;;;;5045868;28;20033;-41
2023/03/30 13:20:46;;;;;;;22.85;4.10;;;12.10;87.30;;;;;;5053042;28;20483;-42
2023/03/30 13:23:22;;;;;;;20.17;4.63;;;12.10;87.50;;;;;;5052280;28;20025;-44